Time;durP1;ratioP1;P1;durP2;ratioP2;P2;SDS_P1;SDS_P2;PMS_P1;PMS_P2;Temp;Humidity;BMP_temperature;BMP_pressure;BME280_temperature;BME280_humidity;BME280_pressure;Samples;Min_cycle;Max_cycle;Signal;HPM_P1;HPM_P2
2023/07/14 00:00:35;;;;;;;8.63;2.63;;;;;;;;;;5024800;28;20057;-65
2023/07/14 00:03:04;;;;;;;6.13;2.53;;;;;;;;;;5033356;28;20045;-64
2023/07/14 00:05:35;;;;;;;9.45;3.03;;;;;;;;;;4999770;28;20056;-67
2023/07/14 00:08:03;;;;;;;7.22;2.88;;;;;;;;;;5041920;28;20103;-60
2023/07/14 00:10:34;;;;;;;5.30;2.53;;;;;;;;;;5024245;28;20203;-64
2023/07/14 00:13:04;;;;;;;22.77;11.15;;;;;;;;;;5029941;28;20061;-62
2023/07/14 00:15:31;;;;;;;20.05;11.32;;;;;;;;;;5014665;28;20061;-66
2023/07/14 00:18:17;;;;;;;7.35;3.33;;;;;;;;;;5021000;28;20072;-66
2023/07/14 00:20:44;;;;;;;7.32;3.38;;;;;;;;;;5014339;28;20061;-65
2023/07/14 00:23:12;;;;;;;10.07;3.33;;;;;;;;;;5021069;28;20068;-64
2023/07/14 00:25:40;;;;;;;;;;;;;;;;;;5005751;28;20072;-67
2023/07/14 00:28:16;;;;;;;5.95;2.67;;;;;;;;;;5019688;28;20019;-66
2023/07/14 00:30:42;;;;;;;8.35;3.38;;;;;;;;;;5021092;28;20058;-65
2023/07/14 00:33:13;;;;;;;6.32;3.08;;;;;;;;;;5020465;28;20119;-65
2023/07/14 00:35:39;;;;;;;7.53;3.38;;;;;;;;;;5014752;28;20065;-65
2023/07/14 00:38:06;;;;;;;6.68;3.35;;;;;;;;;;5020849;28;20061;-64
2023/07/14 00:40:41;;;;;;;7.32;3.05;;;;;;;;;;5011825;28;20085;-64
2023/07/14 00:43:15;;;;;;;8.23;4.00;;;;;;;;;;5020919;28;20068;-66
2023/07/14 00:45:42;;;;;;;14.93;7.25;;;;;;;;;;5014495;28;20053;-63
2023/07/14 00:48:15;;;;;;;29.58;15.02;;;;;;;;;;5022521;28;20065;-60
2023/07/14 00:50:45;;;;;;;18.75;9.52;;;;;;;;;;5015062;28;20061;-67
2023/07/14 00:53:16;;;;;;;11.10;5.30;;;;;;;;;;5020652;28;20061;-65
2023/07/14 00:55:48;;;;;;;10.90;4.32;;;;;;;;;;5013218;28;20165;-60
2023/07/14 00:58:18;;;;;;;9.52;4.10;;;;;;;;;;5018099;28;20049;-61
2023/07/14 01:01:11;;;;;;;10.68;4.03;;;;;;;;;;5013503;28;20053;-67
2023/07/14 01:03:40;;;;;;;8.93;4.13;;;;;;;;;;5004745;28;20057;-64
2023/07/14 01:06:11;;;;;;;9.88;4.28;;;;;;;;;;5014624;28;20081;-65
2023/07/14 01:08:49;;;;;;;10.13;4.55;;;;;;;;;;5011472;28;20136;-62
2023/07/14 01:11:20;;;;;;;22.45;13.75;;;;;;;;;;5019151;28;20062;-65
2023/07/14 01:13:47;;;;;;;40.63;20.48;;;;;;;;;;5017102;28;20058;-64
2023/07/14 01:16:16;;;;;;;20.17;10.23;;;;;;;;;;5014049;28;20061;-64
2023/07/14 01:18:44;;;;;;;15.32;6.82;;;;;;;;;;5011038;28;21644;-62
2023/07/14 01:21:12;;;;;;;8.93;3.97;;;;;;;;;;5018309;28;20065;-64
2023/07/14 01:23:59;;;;;;;8.32;4.30;;;;;;;;;;5016867;28;20160;-62
2023/07/14 01:26:49;;;;;;;7.25;3.70;;;;;;;;;;5006865;28;20080;-62
2023/07/14 01:29:17;;;;;;;8.82;4.55;;;;;;;;;;5020124;28;20065;-61
2023/07/14 01:31:44;;;;;;;7.63;3.72;;;;;;;;;;5018408;28;20063;-68
2023/07/14 01:34:11;;;;;;;8.00;3.70;;;;;;;;;;5017851;28;20060;-62
2023/07/14 01:36:38;;;;;;;10.10;3.92;;;;;;;;;;5006773;28;20369;-67
2023/07/14 01:39:05;;;;;;;8.63;3.63;;;;;;;;;;5018916;28;20060;-64
2023/07/14 01:41:32;;;;;;;8.85;3.72;;;;;;;;;;5018062;28;20057;-64
2023/07/14 01:44:04;;;;;;;8.85;3.78;;;;;;;;;;5017681;28;20061;-64
2023/07/14 01:46:31;;;;;;;6.97;3.55;;;;;;;;;;5005379;28;20063;-63
2023/07/14 01:49:10;;;;;;;8.65;3.95;;;;;;;;;;5018307;28;20065;-61
2023/07/14 01:51:43;;;;;;;8.75;3.83;;;;;;;;;;5019482;28;20115;-65
2023/07/14 01:54:23;;;;;;;7.88;4.30;;;;;;;;;;5018281;28;20060;-63
2023/07/14 01:56:52;;;;;;;9.45;4.18;;;;;;;;;;5011646;28;20140;-64
2023/07/14 01:59:24;;;;;;;15.32;4.80;;;;;;;;;;5015402;28;20065;-64
2023/07/14 02:01:53;;;;;;;10.55;4.45;;;;;;;;;;5013831;28;20050;-65
2023/07/14 02:04:24;;;;;;;9.82;4.03;;;;;;;;;;4974659;28;20061;-64
2023/07/14 02:06:52;;;;;;;8.25;3.92;;;;;;;;;;5028899;28;20053;-67
2023/07/14 02:09:23;;;;;;;9.20;3.78;;;;;;;;;;5033282;28;20135;-66
2023/07/14 02:11:54;;;;;;;13.30;4.55;;;;;;;;;;5040566;28;20041;-62
2023/07/14 02:14:26;;;;;;;17.33;4.53;;;;;;;;;;5005747;28;20053;-66
2023/07/14 02:17:02;;;;;;;9.18;4.32;;;;;;;;;;4992872;28;21227;-61
2023/07/14 02:19:30;;;;;;;8.68;4.13;;;;;;;;;;4998552;28;20091;-65
2023/07/14 02:21:57;;;;;;;9.90;4.53;;;;;;;;;;4998292;28;20064;-62
2023/07/14 02:24:30;;;;;;;9.85;4.05;;;;;;;;;;4992581;28;20053;-67
2023/07/14 02:27:00;;;;;;;10.50;4.78;;;;;;;;;;4998091;28;20057;-65
2023/07/14 02:29:29;;;;;;;8.98;3.95;;;;;;;;;;4996902;28;20053;-65
2023/07/14 02:32:00;;;;;;;11.70;4.38;;;;;;;;;;4997871;28;20068;-66
2023/07/14 02:34:34;;;;;;;11.32;4.22;;;;;;;;;;5014332;28;20060;-65
2023/07/14 02:37:03;;;;;;;9.88;4.35;;;;;;;;;;5033738;28;20065;-62
2023/07/14 02:39:35;;;;;;;8.23;4.60;;;;;;;;;;5035832;28;20100;-65
2023/07/14 02:42:02;;;;;;;10.82;4.15;;;;;;;;;;5017762;28;20057;-65
2023/07/14 02:44:33;;;;;;;8.93;3.88;;;;;;;;;;4981776;28;20068;-65
2023/07/14 02:47:03;;;;;;;12.55;4.63;;;;;;;;;;5008276;28;20059;-64
2023/07/14 02:49:30;;;;;;;11.68;4.20;;;;;;;;;;5038435;28;20065;-64
2023/07/14 02:51:56;;;;;;;9.93;4.40;;;;;;;;;;5036251;28;20067;-67
2023/07/14 02:54:29;;;;;;;8.95;3.90;;;;;;;;;;5010301;28;20056;-66
2023/07/14 02:56:56;;;;;;;10.18;3.75;;;;;;;;;;5018468;28;20049;-64
2023/07/14 02:59:23;;;;;;;7.50;3.88;;;;;;;;;;5054167;28;20079;-62
2023/07/14 03:01:51;;;;;;;8.85;4.35;;;;;;;;;;5028926;28;20057;-61
2023/07/14 03:04:18;;;;;;;10.90;4.10;;;;;;;;;;5013321;28;20060;-64
2023/07/14 03:06:45;;;;;;;9.52;4.35;;;;;;;;;;5010684;28;20363;-65
2023/07/14 03:09:12;;;;;;;9.95;4.10;;;;;;;;;;5017393;28;20155;-64
2023/07/14 03:11:38;;;;;;;12.93;4.40;;;;;;;;;;5033150;28;20056;-62
2023/07/14 03:14:06;;;;;;;14.18;4.05;;;;;;;;;;5011432;28;20053;-62
2023/07/14 03:16:32;;;;;;;12.50;4.45;;;;;;;;;;4990386;28;20053;-64
2023/07/14 03:19:02;;;;;;;9.90;4.72;;;;;;;;;;5015557;28;20056;-65
2023/07/14 03:21:31;;;;;;;8.00;4.22;;;;;;;;;;5053152;28;20056;-63
2023/07/14 03:23:58;;;;;;;10.98;4.53;;;;;;;;;;4978944;28;20072;-62
2023/07/14 03:26:26;;;;;;;11.00;5.05;;;;;;;;;;5030843;28;20057;-62
2023/07/14 03:28:53;;;;;;;12.95;4.80;;;;;;;;;;5034808;28;20056;-63
2023/07/14 03:31:19;;;;;;;9.20;4.65;;;;;;;;;;5021120;28;20044;-64
2023/07/14 03:33:46;;;;;;;10.95;4.65;;;;;;;;;;5014709;28;20132;-60
2023/07/14 03:36:20;;;;;;;13.02;4.80;;;;;;;;;;5015022;28;20048;-64
2023/07/14 03:39:24;;;;;;;9.25;4.35;;;;;;;;;;5010865;28;20136;-66
2023/07/14 03:41:51;;;;;;;9.38;4.47;;;;;;;;;;5036405;28;20065;-66
2023/07/14 03:44:20;;;;;;;11.48;4.05;;;;;;;;;;4990091;28;20064;-69
2023/07/14 03:46:48;;;;;;;11.77;4.53;;;;;;;;;;5011079;28;21197;-67
2023/07/14 03:49:15;;;;;;;8.93;4.22;;;;;;;;;;5016201;28;20172;-65
2023/07/14 03:51:42;;;;;;;8.85;3.72;;;;;;;;;;5016626;28;20061;-63
2023/07/14 03:54:10;;;;;;;10.57;4.50;;;;;;;;;;4999759;28;20061;-65
2023/07/14 03:56:38;;;;;;;8.17;4.10;;;;;;;;;;5014897;28;20068;-64
2023/07/14 03:59:07;;;;;;;10.68;4.72;;;;;;;;;;5019961;28;20053;-63
2023/07/14 04:01:34;;;;;;;8.52;4.10;;;;;;;;;;5019324;28;20133;-67
2023/07/14 04:04:00;;;;;;;9.43;4.60;;;;;;;;;;4998043;28;20094;-64
2023/07/14 04:06:28;;;;;;;11.05;4.60;;;;;;;;;;5028701;28;20057;-62
2023/07/14 04:08:59;;;;;;;8.90;4.13;;;;;;;;;;5006163;28;20073;-66
2023/07/14 04:11:26;;;;;;;13.88;4.32;;;;;;;;;;5000306;28;20084;-60
2023/07/14 04:13:54;;;;;;;13.25;4.68;;;;;;;;;;4987141;28;20049;-62
2023/07/14 04:16:23;;;;;;;12.75;4.38;;;;;;;;;;5014384;28;20049;-63
2023/07/14 04:18:50;;;;;;;13.43;4.80;;;;;;;;;;4996863;28;20060;-62
2023/07/14 04:21:19;;;;;;;9.95;4.55;;;;;;;;;;5001128;28;20064;-61
2023/07/14 04:23:46;;;;;;;13.60;4.82;;;;;;;;;;5015443;28;20057;-61
2023/07/14 04:26:13;;;;;;;9.70;4.70;;;;;;;;;;5016335;28;20136;-64
2023/07/14 04:28:40;;;;;;;8.85;4.65;;;;;;;;;;5011378;28;20053;-61
2023/07/14 04:31:08;;;;;;;8.30;4.75;;;;;;;;;;5000668;28;20115;-63
2023/07/14 04:33:35;;;;;;;9.60;4.38;;;;;;;;;;5000352;28;20051;-65
2023/07/14 04:36:02;;;;;;;9.32;4.15;;;;;;;;;;5001009;28;20148;-64
2023/07/14 04:38:30;;;;;;;15.75;4.85;;;;;;;;;;5014843;28;20045;-60
2023/07/14 04:40:57;;;;;;;9.45;4.30;;;;;;;;;;5013268;28;20069;-68
2023/07/14 04:43:24;;;;;;;8.48;4.38;;;;;;;;;;5016628;28;20185;-66
2023/07/14 04:45:51;;;;;;;11.48;5.05;;;;;;;;;;5018061;28;20063;-65
2023/07/14 04:48:36;;;;;;;11.25;4.60;;;;;;;;;;4997420;28;20053;-63
2023/07/14 04:51:03;;;;;;;12.90;5.60;;;;;;;;;;4981369;28;20138;-63
2023/07/14 04:53:30;;;;;;;11.75;5.50;;;;;;;;;;4996792;28;20050;-67
2023/07/14 04:55:56;;;;;;;10.27;4.93;;;;;;;;;;5009617;28;20110;-64
2023/07/14 04:58:24;;;;;;;9.65;4.57;;;;;;;;;;5034916;28;20116;-63
2023/07/14 05:00:50;;;;;;;9.93;5.03;;;;;;;;;;5034311;28;20115;-63
2023/07/14 05:03:17;;;;;;;11.10;4.90;;;;;;;;;;5037250;28;20053;-67
2023/07/14 05:05:46;;;;;;;11.73;5.32;;;;;;;;;;5019177;28;20067;-63
2023/07/14 05:08:13;;;;;;;10.43;4.50;;;;;;;;;;5036663;28;20231;-67
2023/07/14 05:10:39;;;;;;;11.73;4.88;;;;;;;;;;5027827;28;20057;-64
2023/07/14 05:13:06;;;;;;;9.48;4.60;;;;;;;;;;5018431;28;20085;-63
2023/07/14 05:15:33;;;;;;;9.70;4.38;;;;;;;;;;4966881;28;20119;-63
2023/07/14 05:18:00;;;;;;;14.85;6.18;;;;;;;;;;5017674;28;20053;-68
2023/07/14 05:20:28;;;;;;;11.00;4.85;;;;;;;;;;5011618;28;20053;-61
2023/07/14 05:22:56;;;;;;;15.05;5.65;;;;;;;;;;5016711;28;20118;-63
2023/07/14 05:25:23;;;;;;;10.40;5.13;;;;;;;;;;5014286;28;20061;-63
2023/07/14 05:27:50;;;;;;;10.80;5.07;;;;;;;;;;5016757;28;20053;-63
2023/07/14 05:30:25;;;;;;;8.30;4.45;;;;;;;;;;5033949;28;20057;-62
2023/07/14 05:32:55;;;;;;;9.32;4.47;;;;;;;;;;5034939;28;20053;-64
2023/07/14 05:35:24;;;;;;;9.68;4.65;;;;;;;;;;5029948;28;20045;-64
2023/07/14 05:37:51;;;;;;;7.95;4.13;;;;;;;;;;5018513;28;20115;-62
2023/07/14 05:40:22;;;;;;;12.95;4.68;;;;;;;;;;5036069;28;20065;-60
2023/07/14 05:42:49;;;;;;;9.95;4.18;;;;;;;;;;5017640;28;21482;-64
2023/07/14 05:45:16;;;;;;;13.52;5.97;;;;;;;;;;5028685;28;20080;-65
2023/07/14 05:47:46;;;;;;;25.73;13.10;;;;;;;;;;5015958;28;20080;-66
2023/07/14 05:50:14;;;;;;;16.80;6.20;;;;;;;;;;5017606;28;20126;-65
2023/07/14 05:52:41;;;;;;;8.98;4.10;;;;;;;;;;5012024;28;20041;-66
2023/07/14 05:55:09;;;;;;;10.20;3.92;;;;;;;;;;5029259;28;20094;-64
2023/07/14 05:57:38;;;;;;;10.50;4.23;;;;;;;;;;5017839;28;20053;-62
2023/07/14 06:00:13;;;;;;;6.97;3.60;;;;;;;;;;5018351;28;20079;-64
2023/07/14 06:02:41;;;;;;;9.43;3.83;;;;;;;;;;5008555;28;20056;-61
2023/07/14 06:05:09;;;;;;;;;;;;;;;;;;5004280;28;20059;-64
2023/07/14 06:07:36;;;;;;;7.85;3.00;;;;;;;;;;5020829;28;19931;-65
2023/07/14 06:10:10;;;;;;;9.30;3.50;;;;;;;;;;5016988;28;20064;-62
2023/07/14 06:12:44;;;;;;;10.05;3.63;;;;;;;;;;5009238;28;20045;-64
2023/07/14 06:15:13;;;;;;;9.32;3.20;;;;;;;;;;5006730;28;20456;-66
2023/07/14 06:17:40;;;;;;;7.90;3.63;;;;;;;;;;5017873;28;20152;-61
2023/07/14 06:20:11;;;;;;;12.20;3.78;;;;;;;;;;5022052;28;20056;-65
2023/07/14 06:22:44;;;;;;;6.43;3.13;;;;;;;;;;5009042;28;20069;-63
2023/07/14 06:25:12;;;;;;;11.45;3.33;;;;;;;;;;4995892;28;20057;-62
2023/07/14 06:27:40;;;;;;;7.38;3.05;;;;;;;;;;5007630;28;20075;-60
2023/07/14 06:30:08;;;;;;;;;;;;;;;;;;5022865;28;20057;-62
2023/07/14 06:32:35;;;;;;;10.77;3.25;;;;;;;;;;5033685;28;20035;-66
2023/07/14 06:35:04;;;;;;;7.10;2.80;;;;;;;;;;4995683;28;20057;-61
2023/07/14 06:37:31;;;;;;;8.80;3.22;;;;;;;;;;5011571;28;20130;-66
2023/07/14 06:39:58;;;;;;;9.85;4.18;;;;;;;;;;5017237;28;20071;-65
2023/07/14 06:42:25;;;;;;;10.27;3.95;;;;;;;;;;5017841;28;20064;-62
2023/07/14 06:44:53;;;;;;;7.93;3.47;;;;;;;;;;5030744;28;20133;-64
2023/07/14 06:47:20;;;;;;;10.20;3.45;;;;;;;;;;5036310;28;20049;-66
2023/07/14 06:49:47;;;;;;;10.43;3.35;;;;;;;;;;5036220;28;20061;-63
2023/07/14 06:52:16;;;;;;;8.18;3.22;;;;;;;;;;5038977;28;20045;-64
2023/07/14 06:54:46;;;;;;;9.52;2.78;;;;;;;;;;5018430;28;20289;-63
2023/07/14 06:57:12;;;;;;;6.18;2.92;;;;;;;;;;5037077;28;20119;-64
2023/07/14 06:59:39;;;;;;;8.63;3.17;;;;;;;;;;5017810;28;20193;-62
2023/07/14 07:02:13;;;;;;;9.70;3.65;;;;;;;;;;5022284;28;20124;-62
2023/07/14 07:04:40;;;;;;;8.48;3.25;;;;;;;;;;5017876;28;20278;-63
2023/07/14 07:07:08;;;;;;;12.45;3.47;;;;;;;;;;5016234;28;20064;-62
2023/07/14 07:09:35;;;;;;;7.85;2.95;;;;;;;;;;5018520;28;20061;-64
2023/07/14 07:12:03;;;;;;;12.77;4.00;;;;;;;;;;5016206;28;20060;-68
2023/07/14 07:14:30;;;;;;;8.27;3.58;;;;;;;;;;5007155;28;20037;-64
2023/07/14 07:16:57;;;;;;;7.70;3.33;;;;;;;;;;5013559;28;20056;-63
2023/07/14 07:19:27;;;;;;;7.95;3.00;;;;;;;;;;5014406;28;20061;-62
2023/07/14 07:21:59;;;;;;;6.97;2.92;;;;;;;;;;5014752;28;20136;-67
2023/07/14 07:24:26;;;;;;;7.93;3.00;;;;;;;;;;5022024;28;20053;-61
2023/07/14 07:26:53;;;;;;;8.40;3.70;;;;;;;;;;5040735;28;20065;-64
2023/07/14 07:29:20;;;;;;;6.68;3.40;;;;;;;;;;5037881;28;20049;-64
2023/07/14 07:31:47;;;;;;;11.40;4.25;;;;;;;;;;5039890;28;20064;-63
2023/07/14 07:34:15;;;;;;;8.55;3.35;;;;;;;;;;5032721;28;20131;-64
2023/07/14 07:36:43;;;;;;;6.53;2.45;;;;;;;;;;5047574;28;20041;-62
2023/07/14 07:39:13;;;;;;;5.55;2.30;;;;;;;;;;5022298;28;20053;-62
2023/07/14 07:41:42;;;;;;;10.45;2.75;;;;;;;;;;5018463;28;20064;-62
2023/07/14 07:44:09;;;;;;;9.85;2.28;;;;;;;;;;5017180;28;20045;-63
2023/07/14 07:46:37;;;;;;;8.73;2.42;;;;;;;;;;5015131;28;20048;-62
2023/07/14 07:49:04;;;;;;;8.83;2.10;;;;;;;;;;5023612;28;20132;-64
2023/07/14 07:51:31;;;;;;;6.20;2.38;;;;;;;;;;5022164;28;20048;-61
2023/07/14 07:53:59;;;;;;;7.30;2.75;;;;;;;;;;5011463;28;20064;-61
2023/07/14 07:56:27;;;;;;;4.60;2.15;;;;;;;;;;5054612;28;20060;-63
2023/07/14 07:58:54;;;;;;;6.20;2.33;;;;;;;;;;5031091;28;20041;-64
2023/07/14 08:01:22;;;;;;;6.93;3.63;;;;;;;;;;5023806;28;20053;-65
2023/07/14 08:03:51;;;;;;;;;;;;;;;;;;5008493;28;20061;-62
2023/07/14 08:06:19;;;;;;;10.23;2.95;;;;;;;;;;5014042;28;19936;-63
2023/07/14 08:08:51;;;;;;;6.70;2.42;;;;;;;;;;4995490;28;20042;-64
2023/07/14 08:11:19;;;;;;;7.75;2.38;;;;;;;;;;5000268;28;20135;-65
2023/07/14 08:13:46;;;;;;;6.75;2.85;;;;;;;;;;5025041;28;20058;-62
2023/07/14 08:16:15;;;;;;;10.10;2.38;;;;;;;;;;5016125;28;20049;-63
2023/07/14 08:18:42;;;;;;;7.82;2.47;;;;;;;;;;5001734;28;20136;-64
2023/07/14 08:21:09;;;;;;;9.60;2.80;;;;;;;;;;5017828;28;20071;-63
2023/07/14 08:23:36;;;;;;;5.95;2.20;;;;;;;;;;5014735;28;20045;-64
2023/07/14 08:26:05;;;;;;;5.68;2.35;;;;;;;;;;5013461;28;20061;-64
2023/07/14 08:28:34;;;;;;;6.85;2.97;;;;;;;;;;5013101;28;20197;-63
2023/07/14 08:31:02;;;;;;;10.52;3.03;;;;;;;;;;5021566;28;20064;-64
2023/07/14 08:33:29;;;;;;;11.98;6.22;;;;;;;;;;4940042;28;20064;-64
2023/07/14 08:36:00;;;;;;;7.13;2.33;;;;;;;;;;5009280;28;20051;-62
2023/07/14 08:38:31;;;;;;;6.97;2.72;;;;;;;;;;5019459;28;20055;-64
2023/07/14 08:41:05;;;;;;;8.32;2.13;;;;;;;;;;5040501;28;20044;-62
2023/07/14 08:43:46;;;;;;;5.97;2.10;;;;;;;;;;5020077;28;20055;-65
2023/07/14 08:46:21;;;;;;;6.88;2.55;;;;;;;;;;5026320;28;20052;-62
2023/07/14 08:48:55;;;;;;;6.93;1.90;;;;;;;;;;5015798;28;20146;-63
2023/07/14 08:51:31;;;;;;;7.70;1.90;;;;;;;;;;5001561;28;20107;-64
2023/07/14 08:54:06;;;;;;;7.50;2.00;;;;;;;;;;4999129;28;20071;-63
2023/07/14 08:56:37;;;;;;;6.05;2.00;;;;;;;;;;5011612;28;20119;-62
2023/07/14 08:59:06;;;;;;;7.55;2.00;;;;;;;;;;4990249;28;20074;-64
2023/07/14 09:01:37;;;;;;;6.20;2.08;;;;;;;;;;4985265;28;20145;-61
2023/07/14 09:04:07;;;;;;;5.60;1.95;;;;;;;;;;4965139;28;20045;-61
2023/07/14 09:06:36;;;;;;;4.95;1.95;;;;;;;;;;5023346;28;20061;-63
2023/07/14 09:09:15;;;;;;;6.45;2.10;;;;;;;;;;5020558;28;20114;-66
2023/07/14 09:11:52;;;;;;;5.80;1.83;;;;;;;;;;5019304;28;20077;-64
2023/07/14 09:14:43;;;;;;;7.72;2.30;;;;;;;;;;5023274;28;20089;-63
2023/07/14 09:17:18;;;;;;;7.07;2.78;;;;;;;;;;5020292;28;20049;-63
2023/07/14 09:20:06;;;;;;;8.57;3.38;;;;;;;;;;5003067;28;20086;-66
2023/07/14 09:22:39;;;;;;;9.30;4.05;;;;;;;;;;5017490;28;20069;-64
2023/07/14 09:25:16;;;;;;;6.68;1.88;;;;;;;;;;4994219;28;20064;-64
2023/07/14 09:27:43;;;;;;;4.45;1.85;;;;;;;;;;5021340;28;20077;-65
2023/07/14 09:30:23;;;;;;;6.87;2.63;;;;;;;;;;5036760;28;20077;-61
2023/07/14 09:32:54;;;;;;;4.90;1.77;;;;;;;;;;5018081;28;20300;-64
2023/07/14 09:35:25;;;;;;;8.20;1.73;;;;;;;;;;5000021;28;20049;-63
2023/07/14 09:37:58;;;;;;;6.65;2.20;;;;;;;;;;4997381;28;20108;-61
2023/07/14 09:40:28;;;;;;;6.50;1.98;;;;;;;;;;4996032;28;20068;-61
2023/07/14 09:42:56;;;;;;;6.05;1.85;;;;;;;;;;5016120;28;20088;-64
2023/07/14 09:45:28;;;;;;;6.68;1.80;;;;;;;;;;5011374;28;20049;-63
2023/07/14 09:48:02;;;;;;;6.10;1.88;;;;;;;;;;5022778;28;20119;-63
2023/07/14 09:50:30;;;;;;;8.30;1.80;;;;;;;;;;5012274;28;20097;-64
2023/07/14 09:53:02;;;;;;;5.32;1.70;;;;;;;;;;5031568;28;20063;-63
2023/07/14 09:55:31;;;;;;;5.25;1.90;;;;;;;;;;4985592;28;20056;-61
2023/07/14 09:57:58;;;;;;;6.15;1.90;;;;;;;;;;5015760;28;20057;-65
2023/07/14 10:00:39;;;;;;;5.80;2.20;;;;;;;;;;5036267;28;20057;-65
2023/07/14 10:03:16;;;;;;;3.60;1.63;;;;;;;;;;5021754;28;20053;-67
2023/07/14 10:05:55;;;;;;;3.78;1.55;;;;;;;;;;5021481;28;20099;-63
2023/07/14 10:08:37;;;;;;;5.45;1.77;;;;;;;;;;5022534;28;20084;-65
2023/07/14 10:11:22;;;;;;;4.53;1.52;;;;;;;;;;5039952;28;20076;-66
2023/07/14 10:14:01;;;;;;;3.90;1.73;;;;;;;;;;5021224;28;20040;-65
2023/07/14 10:17:04;;;;;;;5.38;1.77;;;;;;;;;;4991443;28;20068;-63
2023/07/14 10:19:39;;;;;;;10.43;1.63;;;;;;;;;;5023273;28;20158;-63
2023/07/14 10:22:15;;;;;;;5.90;1.60;;;;;;;;;;5001174;28;20059;-63
2023/07/14 10:24:54;;;;;;;3.50;1.65;;;;;;;;;;4983098;28;20072;-64
2023/07/14 10:27:26;;;;;;;7.03;1.60;;;;;;;;;;5001419;28;20057;-66
2023/07/14 10:30:17;;;;;;;3.90;1.55;;;;;;;;;;5026630;28;20061;-65
2023/07/14 10:32:51;;;;;;;7.13;1.80;;;;;;;;;;5017157;28;20049;-67
2023/07/14 10:35:20;;;;;;;5.22;1.80;;;;;;;;;;5009507;28;20049;-64
2023/07/14 10:37:59;;;;;;;4.53;1.60;;;;;;;;;;5038207;28;20056;-63
2023/07/14 10:40:33;;;;;;;5.45;1.73;;;;;;;;;;5000683;28;20068;-66
2023/07/14 10:43:04;;;;;;;4.90;1.75;;;;;;;;;;5015245;28;20104;-66
2023/07/14 10:45:32;;;;;;;3.80;1.52;;;;;;;;;;4994639;28;20049;-64
2023/07/14 10:48:04;;;;;;;5.10;1.85;;;;;;;;;;5020158;28;20053;-62
2023/07/14 10:50:36;;;;;;;5.20;1.75;;;;;;;;;;5015551;28;20127;-64
2023/07/14 10:53:16;;;;;;;3.60;1.58;;;;;;;;;;5015617;28;20056;-64
2023/07/14 10:56:08;;;;;;;4.68;1.48;;;;;;;;;;5004655;28;20064;-66
2023/07/14 10:58:45;;;;;;;4.25;1.60;;;;;;;;;;4995094;28;20058;-64
2023/07/14 11:01:21;;;;;;;2.70;1.30;;;;;;;;;;5019339;28;20053;-65
2023/07/14 11:03:57;;;;;;;3.95;1.50;;;;;;;;;;5020142;28;20049;-63
2023/07/14 11:06:41;;;;;;;;;;;;;;;;;;;;;
2023/07/14 11:09:14;;;;;;;6.20;1.98;;;;;;;;;;5007261;28;20067;-67
2023/07/14 11:11:55;;;;;;;4.20;1.55;;;;;;;;;;5039101;28;20069;-64
2023/07/14 11:14:34;;;;;;;4.38;1.58;;;;;;;;;;5034169;28;20061;-62
2023/07/14 11:17:13;;;;;;;6.15;1.80;;;;;;;;;;5032996;28;20064;-64
2023/07/14 11:20:01;;;;;;;3.47;1.60;;;;;;;;;;5017958;28;20061;-65
2023/07/14 11:22:48;;;;;;;4.80;1.75;;;;;;;;;;5013665;28;20065;-61
2023/07/14 11:25:20;;;;;;;7.10;1.98;;;;;;;;;;5020708;28;20053;-62
2023/07/14 11:27:58;;;;;;;5.60;1.80;;;;;;;;;;5021418;28;20041;-63
2023/07/14 11:30:35;;;;;;;4.78;1.95;;;;;;;;;;5025025;28;20152;-62
2023/07/14 11:33:09;;;;;;;4.35;1.77;;;;;;;;;;5020103;28;20180;-61
2023/07/14 11:35:49;;;;;;;3.13;1.48;;;;;;;;;;4989856;28;20058;-64
2023/07/14 11:38:46;;;;;;;7.63;1.77;;;;;;;;;;5026931;28;20158;-62
2023/07/14 11:41:14;;;;;;;5.37;1.93;;;;;;;;;;5036575;28;20065;-63
2023/07/14 11:43:42;;;;;;;4.70;1.67;;;;;;;;;;5018831;28;20140;-64
2023/07/14 11:46:13;;;;;;;5.75;2.05;;;;;;;;;;5015999;28;20053;-64
2023/07/14 11:48:43;;;;;;;4.45;1.58;;;;;;;;;;5011685;28;20045;-66
2023/07/14 11:51:17;;;;;;;4.20;2.00;;;;;;;;;;5036307;28;20057;-66
2023/07/14 11:54:04;;;;;;;3.95;1.42;;;;;;;;;;5014569;28;20049;-63
2023/07/14 11:56:36;;;;;;;4.38;1.60;;;;;;;;;;5005059;28;20045;-65
2023/07/14 11:59:13;;;;;;;5.78;1.67;;;;;;;;;;4997194;28;20057;-63
2023/07/14 12:01:46;;;;;;;5.20;1.75;;;;;;;;;;5042282;28;20060;-66
2023/07/14 12:04:31;;;;;;;3.47;1.70;;;;;;;;;;5039268;28;20041;-63
2023/07/14 12:07:13;;;;;;;4.40;1.58;;;;;;;;;;5033405;28;20063;-63
2023/07/14 12:10:14;;;;;;;3.08;1.42;;;;;;;;;;5037252;28;20061;-62
2023/07/14 12:12:42;;;;;;;4.20;1.88;;;;;;;;;;4959569;28;20430;-64
2023/07/14 12:15:45;;;;;;;3.53;1.67;;;;;;;;;;4929762;28;20055;-65
2023/07/14 12:18:27;;;;;;;5.13;1.75;;;;;;;;;;4956418;28;20050;-63
2023/07/14 12:21:21;;;;;;;4.38;1.77;;;;;;;;;;4968670;28;20109;-65
2023/07/14 12:23:52;;;;;;;5.40;1.77;;;;;;;;;;4961153;28;20054;-66
2023/07/14 12:26:31;;;;;;;5.72;1.52;;;;;;;;;;4927081;28;20050;-64
2023/07/14 12:29:01;;;;;;;3.03;1.52;;;;;;;;;;4959871;28;20054;-67
2023/07/14 12:31:35;;;;;;;6.18;2.08;;;;;;;;;;4976003;28;20058;-67
2023/07/14 12:34:03;;;;;;;7.13;1.98;;;;;;;;;;4975688;28;20162;-66
2023/07/14 12:36:31;;;;;;;6.00;1.80;;;;;;;;;;4967828;28;20152;-65
2023/07/14 12:39:04;;;;;;;4.68;1.88;;;;;;;;;;4960228;28;20057;-67
2023/07/14 12:41:35;;;;;;;3.88;1.50;;;;;;;;;;4976410;28;20243;-65
2023/07/14 12:44:02;;;;;;;3.05;1.50;;;;;;;;;;5011920;28;20072;-64
2023/07/14 12:46:34;;;;;;;5.45;1.83;;;;;;;;;;5036011;28;20044;-65
2023/07/14 12:49:03;;;;;;;6.15;2.10;;;;;;;;;;5057323;28;20087;-66
2023/07/14 12:51:36;;;;;;;5.38;2.00;;;;;;;;;;5040749;28;20059;-63
2023/07/14 12:54:06;;;;;;;5.63;1.80;;;;;;;;;;5042056;28;20225;-65
2023/07/14 12:56:34;;;;;;;6.18;1.83;;;;;;;;;;5014180;28;20067;-63
2023/07/14 12:59:02;;;;;;;5.78;2.50;;;;;;;;;;5039142;28;20057;-67
2023/07/14 13:01:33;;;;;;;4.93;1.80;;;;;;;;;;5037714;28;20131;-67
2023/07/14 13:04:02;;;;;;;6.93;1.73;;;;;;;;;;5056454;28;20065;-66
2023/07/14 13:06:29;;;;;;;4.82;1.65;;;;;;;;;;5033660;28;20050;-67
2023/07/14 13:08:59;;;;;;;3.35;1.45;;;;;;;;;;5059710;28;20057;-65
2023/07/14 13:11:37;;;;;;;5.78;1.58;;;;;;;;;;5041903;28;20146;-64
2023/07/14 13:14:13;;;;;;;4.55;1.38;;;;;;;;;;5056955;28;20117;-62
2023/07/14 13:16:43;;;;;;;3.92;1.60;;;;;;;;;;5047286;28;20063;-63
2023/07/14 13:19:23;;;;;;;5.50;1.48;;;;;;;;;;5047524;28;20089;-64
2023/07/14 13:21:50;;;;;;;4.75;1.52;;;;;;;;;;5044420;28;20148;-63
2023/07/14 13:24:22;;;;;;;3.35;1.63;;;;;;;;;;5032499;28;20056;-63
2023/07/14 13:26:56;;;;;;;4.25;1.70;;;;;;;;;;5059191;28;20185;-62
2023/07/14 13:29:25;;;;;;;4.55;1.50;;;;;;;;;;5057899;28;20056;-64
2023/07/14 13:31:56;;;;;;;4.85;1.38;;;;;;;;;;5051845;28;20090;-61
2023/07/14 13:34:27;;;;;;;5.25;2.10;;;;;;;;;;5052511;28;20060;-62
2023/07/14 13:36:54;;;;;;;3.05;1.63;;;;;;;;;;5025517;28;20053;-62
2023/07/14 13:39:25;;;;;;;3.38;1.38;;;;;;;;;;5018867;28;20321;-65
2023/07/14 13:41:57;;;;;;;6.40;2.00;;;;;;;;;;5033735;28;20040;-62
2023/07/14 13:44:47;;;;;;;4.78;1.75;;;;;;;;;;5028322;28;20079;-63
2023/07/14 13:47:17;;;;;;;8.13;2.15;;;;;;;;;;5029471;28;20052;-60
2023/07/14 13:49:44;;;;;;;6.70;1.90;;;;;;;;;;5018958;28;20057;-62
2023/07/14 13:52:15;;;;;;;8.18;1.98;;;;;;;;;;5036583;28;20325;-65
2023/07/14 13:54:46;;;;;;;4.30;1.83;;;;;;;;;;5034050;28;20056;-64
2023/07/14 13:57:15;;;;;;;7.00;1.90;;;;;;;;;;5059369;28;20221;-64
2023/07/14 13:59:44;;;;;;;5.05;1.83;;;;;;;;;;5038309;28;20110;-64
2023/07/14 14:02:32;;;;;;;11.98;1.92;;;;;;;;;;5010727;28;20137;-64
2023/07/14 14:05:01;;;;;;;3.70;1.60;;;;;;;;;;4998048;28;20062;-62
2023/07/14 14:07:27;;;;;;;5.20;1.90;;;;;;;;;;5021433;28;20152;-64
2023/07/14 14:09:54;;;;;;;4.00;1.60;;;;;;;;;;5037063;28;20084;-67
2023/07/14 14:12:30;;;;;;;3.03;1.70;;;;;;;;;;5038485;28;20095;-66
2023/07/14 14:14:57;;;;;;;5.65;1.92;;;;;;;;;;5007183;28;20059;-65
2023/07/14 14:17:32;;;;;;;5.30;2.40;;;;;;;;;;5039951;28;20080;-64
2023/07/14 14:19:59;;;;;;;14.68;8.07;;;;;;;;;;5024078;28;20156;-63
2023/07/14 14:22:29;;;;;;;9.23;3.20;;;;;;;;;;5002333;28;20140;-65
2023/07/14 14:24:56;;;;;;;6.65;2.22;;;;;;;;;;4995413;28;20061;-64
2023/07/14 14:27:23;;;;;;;5.90;1.80;;;;;;;;;;5033209;28;20119;-66
2023/07/14 14:29:51;;;;;;;3.38;1.67;;;;;;;;;;5022471;28;20080;-66
2023/07/14 14:32:18;;;;;;;;;;;;;;;;;;5019349;28;20057;-67
2023/07/14 14:34:46;;;;;;;8.60;4.50;;;;;;;;;;5017120;28;19931;-65
2023/07/14 14:37:13;;;;;;;8.63;3.07;;;;;;;;;;5037919;28;20053;-65
2023/07/14 14:39:42;;;;;;;4.78;1.60;;;;;;;;;;5042683;28;20053;-67
2023/07/14 14:42:15;;;;;;;3.67;1.52;;;;;;;;;;5022561;28;20064;-67
2023/07/14 14:44:42;;;;;;;6.93;1.73;;;;;;;;;;5001288;28;20218;-66
2023/07/14 14:47:14;;;;;;;3.28;1.58;;;;;;;;;;5010971;28;20229;-63
2023/07/14 14:49:42;;;;;;;4.60;1.55;;;;;;;;;;5021115;28;20063;-65
2023/07/14 14:52:09;;;;;;;5.97;1.55;;;;;;;;;;5035153;28;20061;-67
2023/07/14 14:54:36;;;;;;;4.47;1.70;;;;;;;;;;5008493;28;20276;-64
2023/07/14 14:57:06;;;;;;;5.75;1.50;;;;;;;;;;5003089;28;20069;-67
2023/07/14 14:59:35;;;;;;;2.83;1.70;;;;;;;;;;5023301;28;20603;-62
2023/07/14 15:02:02;;;;;;;4.55;1.40;;;;;;;;;;5019942;28;20087;-61
2023/07/14 15:04:34;;;;;;;4.55;1.65;;;;;;;;;;5002637;28;20067;-63
2023/07/14 15:07:02;;;;;;;3.95;1.33;;;;;;;;;;5026527;28;20094;-62